Viimsi — ES2084 — position and weather

sailwx.info

Track history (hours):
 
Tides and Currents Weather Stations Pressure Air Temp Water Temp Dewpoint Dewpoint Depression Visibility Wind Speed Wind Dir Waves Ship Positions

Viimsi

Last reported at 2016-Sep-26 15:33 UTC. Time now 2016-Sep-26 22:34 UTC.
Position N 59°32' E 024°56'.

Length 78 m; draft 4.7 m.

Type: Ship. MMSI: 276297000.

Date/timePositionNaut miles runAvg speedWind from/ knotsBaromVisibWave heightAir tempDewpointWater temp
2016-Sep-26 15:33N 59°32' E 024°56'5 2.5
2016-Sep-26 13:33N 59°35' E 024°49'0 0.0
2016-Sep-26 11:33N 59°35' E 024°49'0 0.0
2016-Sep-26 08:33N 59°35' E 024°49'8 1.4
2016-Sep-26 02:33N 59°28' E 024°43'0 0.0
2016-Sep-26 01:33N 59°28' E 024°43'0 0.0
2016-Sep-26 00:34N 59°28' E 024°43'0 0.0
2016-Sep-25 21:33N 59°28' E 024°43'0 0.0
2016-Sep-25 17:33N 59°28' E 024°43'0 0.0
2016-Sep-25 16:33N 59°28' E 024°43'0 0.0
2016-Sep-25 15:33N 59°28' E 024°43'0 0.0
2016-Sep-25 14:33N 59°28' E 024°43'0 0.0
2016-Sep-25 12:33N 59°28' E 024°43'0 0.3
2016-Sep-25 11:33N 59°28' E 024°44'4 3.8
2016-Sep-25 10:33N 59°30' E 024°37'3 3.2
2016-Sep-25 09:33N 59°29' E 024°31'0 0.0
2016-Sep-25 07:33N 59°29' E 024°31'6 2.1
2016-Sep-25 04:33N 59°28' E 024°43'0 0.0
2016-Sep-25 00:31N 59°28' E 024°43'0 0.0
2016-Sep-24 22:33N 59°28' E 024°43'0 0.0
2016-Sep-24 21:33N 59°28' E 024°43'0 0.0
2016-Sep-24 19:33N 59°28' E 024°43'0 0.0
2016-Sep-24 18:32N 59°28' E 024°43'0 0.0
2016-Sep-24 17:33N 59°28' E 024°43'3 2.6
2016-Sep-24 16:33N 59°30' E 024°41'4 2.1
2016-Sep-24 14:33N 59°29' E 024°32'5 2.3
2016-Sep-24 12:33N 59°30' E 024°41'3 1.4
2016-Sep-24 10:33N 59°28' E 024°43'0 0.0
2016-Sep-24 09:33N 59°28' E 024°43'6 0.9
2016-Sep-24 03:05N 59°29' E 024°32'0 0.0
2016-Sep-24 02:33N 59°29' E 024°32'0 0.0
2016-Sep-24 01:33N 59°29' E 024°32'6 6.6
2016-Sep-24 00:33N 59°33' E 024°41'8 0.9
2016-Sep-23 15:33N 59°32' E 024°56'6 3.1
2016-Sep-23 13:33N 59°32' E 024°44'7 1.9
2016-Sep-23 09:33N 59°29' E 024°31'0 0.0
2016-Sep-23 06:32N 59°29' E 024°31'6 3.0
2016-Sep-23 04:33N 59°30' E 024°42'2 2.3
2016-Sep-23 03:33N 59°28' E 024°43'0 0.0
2016-Sep-23 02:33N 59°28' E 024°43'0 0.0
2016-Sep-23 01:33N 59°28' E 024°43'0 0.0
2016-Sep-23 00:33N 59°28' E 024°43'0 0.0
2016-Sep-22 23:33N 59°28' E 024°43'0 0.1
2016-Sep-22 20:33N 59°28' E 024°43'8 0.2
2016-Sep-21 09:33N 59°33' E 024°54'6 4.6
2016-Sep-21 08:20N 59°34' E 024°43'6 2.2
2016-Sep-21 05:33N 59°28' E 024°43'0 0.0
2016-Sep-21 03:33N 59°28' E 024°43'0 0.0
2016-Sep-21 02:33N 59°28' E 024°43'0 0.0
2016-Sep-20 17:33N 59°28' E 024°43'0 0.0
2016-Sep-20 14:33N 59°28' E 024°43'0 0.2
2016-Sep-20 13:33N 59°28' E 024°43'0 0.0
2016-Sep-20 10:33N 59°28' E 024°43'0 0.1
2016-Sep-20 08:33N 59°28' E 024°43'0 0.1
2016-Sep-20 07:33N 59°28' E 024°43'0 0.0
2016-Sep-20 06:33N 59°28' E 024°43'0 0.0
2016-Sep-20 02:33N 59°28' E 024°43'0 0.0
2016-Sep-19 23:31N 59°28' E 024°43'0 0.0
2016-Sep-19 19:33N 59°28' E 024°43'0 0.0
2016-Sep-19 18:33N 59°28' E 024°43'0 0.0
2016-Sep-19 16:33N 59°28' E 024°43'0 0.0
2016-Sep-19 14:33N 59°28' E 024°43'0 0.0
2016-Sep-19 13:33N 59°28' E 024°43'0 0.0
2016-Sep-19 12:33N 59°28' E 024°43'0 0.0
2016-Sep-19 11:33N 59°28' E 024°43'0 0.0
2016-Sep-19 09:33N 59°28' E 024°43'0 0.0
2016-Sep-19 07:33N 59°28' E 024°43'0 0.0
2016-Sep-19 06:33N 59°28' E 024°43'0 0.0
2016-Sep-19 03:33N 59°28' E 024°43'0 0.0
2016-Sep-19 02:33N 59°28' E 024°43'0 0.0
2016-Sep-19 00:33N 59°28' E 024°43'0 0.0
2016-Sep-18 19:33N 59°28' E 024°43'0 0.0
2016-Sep-18 15:33N 59°28' E 024°43'0 0.0
2016-Sep-18 14:33N 59°28' E 024°43'6 1.5
2016-Sep-18 10:31N 59°29' E 024°31'0 0.0
2016-Sep-18 09:31N 59°29' E 024°31'1 0.1
2016-Sep-18 02:33N 59°29' E 024°32'0 0.0
2016-Sep-18 01:33N 59°29' E 024°32'4 3.5
2016-Sep-18 00:33N 59°28' E 024°38'0 0.1
2016-Sep-17 22:33N 59°28' E 024°39'0 0.0
2016-Sep-17 21:33N 59°28' E 024°39'0 0.0
2016-Sep-17 20:33N 59°28' E 024°39'0 0.0
2016-Sep-17 19:16N 59°28' E 024°39'0 0.0
2016-Sep-17 13:33N 59°28' E 024°39'0 0.0
2016-Sep-17 12:33N 59°28' E 024°39'0 0.0
2016-Sep-17 10:33N 59°28' E 024°39'0 0.0
2016-Sep-17 09:33N 59°28' E 024°39'0 0.0
2016-Sep-17 08:32N 59°28' E 024°39'3 2.8
2016-Sep-17 07:33N 59°28' E 024°44'1 0.4
2016-Sep-17 05:33N 59°28' E 024°43'0 0.0
2016-Sep-17 04:33N 59°28' E 024°43'0 0.0
2016-Sep-17 00:33N 59°28' E 024°43'0 0.0
2016-Sep-16 17:33N 59°28' E 024°43'0 0.0
2016-Sep-16 15:33N 59°28' E 024°43'  
Track history (hours):
 
Tides and Currents Weather Stations Pressure Air Temp Water Temp Dewpoint Dewpoint Depression Visibility Wind Speed Wind Dir Waves Ship Positions

Viimsi

Last reported at 2016-Sep-26 15:33 UTC. Time now 2016-Sep-26 22:34 UTC.
Position N 59°32' E 024°56'.

Length 78 m; draft 4.7 m.

Type: Ship. MMSI: 276297000.

Date/timePositionNaut miles runAvg speedWind from/ knotsBaromVisibWave heightAir tempDewpointWater temp
2016-Sep-26 15:33N 59°32' E 024°56'5 2.5
2016-Sep-26 13:33N 59°35' E 024°49'0 0.0
2016-Sep-26 11:33N 59°35' E 024°49'0 0.0
2016-Sep-26 08:33N 59°35' E 024°49'8 1.4
2016-Sep-26 02:33N 59°28' E 024°43'0 0.0
2016-Sep-26 01:33N 59°28' E 024°43'0 0.0
2016-Sep-26 00:34N 59°28' E 024°43'0 0.0
2016-Sep-25 21:33N 59°28' E 024°43'0 0.0
2016-Sep-25 17:33N 59°28' E 024°43'0 0.0
2016-Sep-25 16:33N 59°28' E 024°43'0 0.0
2016-Sep-25 15:33N 59°28' E 024°43'0 0.0
2016-Sep-25 14:33N 59°28' E 024°43'0 0.0
2016-Sep-25 12:33N 59°28' E 024°43'0 0.3
2016-Sep-25 11:33N 59°28' E 024°44'4 3.8
2016-Sep-25 10:33N 59°30' E 024°37'3 3.2
2016-Sep-25 09:33N 59°29' E 024°31'0 0.0
2016-Sep-25 07:33N 59°29' E 024°31'6 2.1
2016-Sep-25 04:33N 59°28' E 024°43'0 0.0
2016-Sep-25 00:31N 59°28' E 024°43'0 0.0
2016-Sep-24 22:33N 59°28' E 024°43'0 0.0
2016-Sep-24 21:33N 59°28' E 024°43'0 0.0
2016-Sep-24 19:33N 59°28' E 024°43'0 0.0
2016-Sep-24 18:32N 59°28' E 024°43'0 0.0
2016-Sep-24 17:33N 59°28' E 024°43'3 2.6
2016-Sep-24 16:33N 59°30' E 024°41'4 2.1
2016-Sep-24 14:33N 59°29' E 024°32'5 2.3
2016-Sep-24 12:33N 59°30' E 024°41'3 1.4
2016-Sep-24 10:33N 59°28' E 024°43'0 0.0
2016-Sep-24 09:33N 59°28' E 024°43'6 0.9
2016-Sep-24 03:05N 59°29' E 024°32'0 0.0
2016-Sep-24 02:33N 59°29' E 024°32'0 0.0
2016-Sep-24 01:33N 59°29' E 024°32'6 6.6
2016-Sep-24 00:33N 59°33' E 024°41'8 0.9
2016-Sep-23 15:33N 59°32' E 024°56'6 3.1
2016-Sep-23 13:33N 59°32' E 024°44'7 1.9
2016-Sep-23 09:33N 59°29' E 024°31'0 0.0
2016-Sep-23 06:32N 59°29' E 024°31'6 3.0
2016-Sep-23 04:33N 59°30' E 024°42'2 2.3
2016-Sep-23 03:33N 59°28' E 024°43'0 0.0
2016-Sep-23 02:33N 59°28' E 024°43'0 0.0
2016-Sep-23 01:33N 59°28' E 024°43'0 0.0
2016-Sep-23 00:33N 59°28' E 024°43'0 0.0
2016-Sep-22 23:33N 59°28' E 024°43'0 0.1
2016-Sep-22 20:33N 59°28' E 024°43'8 0.2
2016-Sep-21 09:33N 59°33' E 024°54'6 4.6
2016-Sep-21 08:20N 59°34' E 024°43'6 2.2
2016-Sep-21 05:33N 59°28' E 024°43'0 0.0
2016-Sep-21 03:33N 59°28' E 024°43'0 0.0
2016-Sep-21 02:33N 59°28' E 024°43'0 0.0
2016-Sep-20 17:33N 59°28' E 024°43'0 0.0
2016-Sep-20 14:33N 59°28' E 024°43'0 0.2
2016-Sep-20 13:33N 59°28' E 024°43'0 0.0
2016-Sep-20 10:33N 59°28' E 024°43'0 0.1
2016-Sep-20 08:33N 59°28' E 024°43'0 0.1
2016-Sep-20 07:33N 59°28' E 024°43'0 0.0
2016-Sep-20 06:33N 59°28' E 024°43'0 0.0
2016-Sep-20 02:33N 59°28' E 024°43'0 0.0
2016-Sep-19 23:31N 59°28' E 024°43'0 0.0
2016-Sep-19 19:33N 59°28' E 024°43'0 0.0
2016-Sep-19 18:33N 59°28' E 024°43'0 0.0
2016-Sep-19 16:33N 59°28' E 024°43'0 0.0
2016-Sep-19 14:33N 59°28' E 024°43'0 0.0
2016-Sep-19 13:33N 59°28' E 024°43'0 0.0
2016-Sep-19 12:33N 59°28' E 024°43'0 0.0
2016-Sep-19 11:33N 59°28' E 024°43'0 0.0
2016-Sep-19 09:33N 59°28' E 024°43'0 0.0
2016-Sep-19 07:33N 59°28' E 024°43'0 0.0
2016-Sep-19 06:33N 59°28' E 024°43'0 0.0
2016-Sep-19 03:33N 59°28' E 024°43'0 0.0
2016-Sep-19 02:33N 59°28' E 024°43'0 0.0
2016-Sep-19 00:33N 59°28' E 024°43'0 0.0
2016-Sep-18 19:33N 59°28' E 024°43'0 0.0
2016-Sep-18 15:33N 59°28' E 024°43'0 0.0
2016-Sep-18 14:33N 59°28' E 024°43'6 1.5
2016-Sep-18 10:31N 59°29' E 024°31'0 0.0
2016-Sep-18 09:31N 59°29' E 024°31'1 0.1
2016-Sep-18 02:33N 59°29' E 024°32'0 0.0
2016-Sep-18 01:33N 59°29' E 024°32'4 3.5
2016-Sep-18 00:33N 59°28' E 024°38'0 0.1
2016-Sep-17 22:33N 59°28' E 024°39'0 0.0
2016-Sep-17 21:33N 59°28' E 024°39'0 0.0
2016-Sep-17 20:33N 59°28' E 024°39'0 0.0
2016-Sep-17 19:16N 59°28' E 024°39'0 0.0
2016-Sep-17 13:33N 59°28' E 024°39'0 0.0
2016-Sep-17 12:33N 59°28' E 024°39'0 0.0
2016-Sep-17 10:33N 59°28' E 024°39'0 0.0
2016-Sep-17 09:33N 59°28' E 024°39'0 0.0
2016-Sep-17 08:32N 59°28' E 024°39'3 2.8
2016-Sep-17 07:33N 59°28' E 024°44'1 0.4
2016-Sep-17 05:33N 59°28' E 024°43'0 0.0
2016-Sep-17 04:33N 59°28' E 024°43'0 0.0
2016-Sep-17 00:33N 59°28' E 024°43'0 0.0
2016-Sep-16 17:33N 59°28' E 024°43'0 0.0
2016-Sep-16 15:33N 59°28' E 024°43'  

Dump ship's entire track history